Sherbrooke Airport Sherbrooke CA
ICAO: CYSC
IATA: YSC
Category: Medium
Scheduled Services: No

Elevation: 792 ft
TransAlt. 7900 ft.

Airport Communications:
MF:123.5
AWOS:126.25
MONTREAL CNTR:132.55
ATF/UNICOM:123.5

CYSC Zoom In..

If you have problems with the map follow the link
https://www.worldairports.se/pages/airport.php?
ICAO=CYSC

Runways:

(A) RW 13 length 5901 ft width 150 ft
---- / hdg 136

(B) RW 31 length 5901 ft width 150 ft
---- / hdg 316

Location; CYSC
Day. 21 / Time. 08.00 Zulu
* Altimeter: 29.66
* Temperature: -00° c. -32°f.
* Wind from: 270° Speed 08 kn.
Dewpoint: -02° c.
Visibility: 9 Statute Miles.
Clouds: Clear (automated report).

CYSC 210800Z AUTO 27008KT 9SM CLR M00/M02 A2966 RMK SLP052


Wind From 270°
Speed 08 kn.

 
 
jpsmedia.com for Web Design worldairports.se 2018   terms of use